Time;durP1;ratioP1;P1;durP2;ratioP2;P2;SDS_P1;SDS_P2;PMS_P1;PMS_P2;Temp;Humidity;BMP_temperature;BMP_pressure;BME280_temperature;BME280_humidity;BME280_pressure;Samples;Min_cycle;Max_cycle;Signal;HPM_P1;HPM_P2
2023/10/25 00:02:15;;;;;;;1.70;1.45;;;;;;;13.06;nan;60223.50;5013431;28;20206;-73
2023/10/25 00:04:40;;;;;;;1.90;1.75;;;;;;;13.16;nan;60204.44;5014739;28;20176;-73
2023/10/25 00:07:07;;;;;;;1.77;1.42;;;;;;;12.87;nan;60189.53;5014375;28;20265;-69
2023/10/25 00:09:32;;;;;;;1.48;1.23;;;;;;;13.04;nan;60031.59;5014342;28;20175;-72
2023/10/25 00:11:58;;;;;;;3.00;2.08;;;;;;;12.88;nan;60175.81;5014731;28;20168;-73
2023/10/25 00:14:23;;;;;;;3.53;2.17;;;;;;;12.99;nan;60159.88;5014715;28;20713;-72
2023/10/25 00:16:49;;;;;;;1.67;1.58;;;;;;;12.87;nan;60212.59;5014629;28;20262;-71
2023/10/25 00:19:15;;;;;;;2.50;2.08;;;;;;;12.71;nan;60090.28;5014336;28;20262;-70
2023/10/25 00:21:41;;;;;;;1.33;1.23;;;;;;;12.83;nan;60291.25;5014193;28;20200;-73
2023/10/25 00:24:06;;;;;;;2.45;1.42;;;;;;;12.77;nan;60333.25;5015129;28;20172;-70
2023/10/25 00:26:32;;;;;;;1.95;1.67;;;;;;;12.94;nan;60310.66;5015092;28;20290;-72
2023/10/25 00:28:58;;;;;;;1.73;1.50;;;;;;;12.93;nan;60296.72;5013649;28;20178;-72
2023/10/25 00:31:24;;;;;;;1.55;1.45;;;;;;;12.74;nan;60219.16;5014889;28;20596;-72
2023/10/25 00:33:49;;;;;;;8.23;1.45;;;;;;;12.83;nan;60180.50;5013781;28;20180;-71
2023/10/25 00:36:15;;;;;;;2.40;1.40;;;;;;;12.77;nan;60000.16;5014230;28;20542;-70
2023/10/25 00:38:41;;;;;;;2.75;2.08;;;;;;;12.57;nan;59895.44;5014541;28;20194;-71
2023/10/25 00:41:06;;;;;;;1.60;1.50;;;;;;;12.73;nan;60253.94;5014334;28;20171;-72
2023/10/25 00:43:32;;;;;;;1.52;1.42;;;;;;;12.93;nan;60488.41;5014515;28;20179;-72
2023/10/25 00:46:25;;;;;;;2.72;1.77;;;;;;;12.92;nan;60410.94;5014600;28;20291;-72
2023/10/25 00:48:55;;;;;;;1.48;1.38;;;;;;;12.80;nan;60398.13;5010397;28;20187;-71
2023/10/25 00:51:21;;;;;;;2.75;1.83;;;;;;;12.34;nan;60439.50;5014729;28;20198;-72
2023/10/25 00:53:52;;;;;;;4.45;2.55;;;;;;;12.56;nan;60314.94;5014205;28;20214;-71
2023/10/25 00:56:21;;;;;;;1.75;1.65;;;;;;;12.71;nan;60346.50;5014551;28;20206;-71
2023/10/25 00:58:49;;;;;;;3.20;2.17;;;;;;;12.72;nan;60457.78;5014398;28;20180;-72
2023/10/25 01:01:17;;;;;;;3.53;1.80;;;;;;;12.51;nan;60403.59;5014243;28;20174;-71
2023/10/25 01:03:42;;;;;;;2.95;2.20;;;;;;;12.56;nan;60196.56;5014230;28;20160;-70
2023/10/25 01:06:08;;;;;;;2.03;1.88;;;;;;;12.61;nan;60191.88;5014264;28;20207;-71
2023/10/25 01:08:34;;;;;;;3.50;2.17;;;;;;;12.57;nan;60256.59;5013787;28;20243;-71
2023/10/25 01:11:00;;;;;;;1.52;1.42;;;;;;;12.61;nan;60261.63;5014078;28;20542;-71
2023/10/25 01:13:25;;;;;;;2.13;1.90;;;;;;;12.64;nan;60331.00;5013556;28;20184;-70
2023/10/25 01:15:51;;;;;;;2.50;1.90;;;;;;;12.61;nan;60150.91;5013550;28;20176;-71
2023/10/25 01:18:16;;;;;;;2.17;1.98;;;;;;;12.40;nan;60169.06;5014022;28;20168;-71
2023/10/25 01:20:43;;;;;;;1.60;1.45;;;;;;;12.43;nan;60061.72;5014245;28;20306;-72
2023/10/25 01:23:08;;;;;;;2.92;2.35;;;;;;;12.55;nan;60042.31;5013683;28;20172;-70
2023/10/25 01:25:34;;;;;;;1.83;1.38;;;;;;;12.49;nan;59928.09;5013578;28;20199;-73
2023/10/25 01:28:00;;;;;;;2.83;1.52;;;;;;;12.39;nan;59934.94;5013633;28;20654;-72
2023/10/25 01:30:26;;;;;;;2.42;2.22;;;;;;;12.23;nan;59787.19;5013075;28;20179;-71
2023/10/25 01:32:55;;;;;;;1.20;1.10;;;;;;;12.47;nan;59789.59;5013920;28;20635;-71
2023/10/25 01:35:20;;;;;;;1.27;1.17;;;;;;;12.23;nan;59863.97;5028632;28;20200;-72
2023/10/25 01:37:46;;;;;;;1.52;1.42;;;;;;;12.40;nan;59759.34;5013498;28;20171;-72
2023/10/25 01:40:12;;;;;;;2.28;2.08;;;;;;;12.38;nan;60011.19;5013317;28;20179;-70
2023/10/25 01:42:37;;;;;;;1.25;1.15;;;;;;;12.15;nan;59906.31;5012924;28;20176;-71
2023/10/25 01:45:03;;;;;;;1.30;1.20;;;;;;;12.11;nan;59914.13;5013293;28;20671;-71
2023/10/25 01:47:29;;;;;;;2.03;1.83;;;;;;;12.09;nan;59945.72;5013533;28;20239;-70
2023/10/25 01:49:54;;;;;;;3.63;1.52;;;;;;;12.14;nan;60014.69;5013528;28;20211;-71
2023/10/25 01:52:20;;;;;;;1.50;1.40;;;;;;;12.02;nan;60111.97;5013306;28;20183;-72
2023/10/25 01:54:46;;;;;;;1.33;1.23;;;;;;;12.23;nan;60226.94;5013028;28;20163;-72
2023/10/25 01:57:12;;;;;;;2.03;1.42;;;;;;;12.17;nan;60097.38;5013390;28;20211;-71
2023/10/25 01:59:37;;;;;;;2.55;2.35;;;;;;;12.05;nan;60061.56;5013077;28;20242;-71
2023/10/25 02:02:03;;;;;;;1.73;1.63;;;;;;;12.35;nan;59959.19;5034922;28;20179;-69
2023/10/25 02:04:29;;;;;;;1.50;1.40;;;;;;;12.14;nan;59945.59;5023596;28;20180;-70
2023/10/25 02:06:55;;;;;;;1.92;1.77;;;;;;;12.31;nan;59941.97;5013089;28;20206;-71
2023/10/25 02:09:21;;;;;;;1.55;1.45;;;;;;;12.22;nan;59910.94;5012998;28;20173;-73
2023/10/25 02:11:47;;;;;;;2.42;1.17;;;;;;;12.24;nan;59992.53;5013366;28;20251;-73
2023/10/25 02:14:12;;;;;;;1.30;1.20;;;;;;;12.12;nan;59974.06;5012786;28;20180;-70
2023/10/25 02:16:37;;;;;;;1.42;1.33;;;;;;;12.38;nan;60005.50;5012594;28;20279;-71
2023/10/25 02:19:03;;;;;;;1.70;1.48;;;;;;;12.27;nan;60073.22;5012530;28;20701;-72
2023/10/25 02:21:28;;;;;;;1.60;1.48;;;;;;;12.37;nan;60037.69;5012638;28;20584;-70
2023/10/25 02:23:54;;;;;;;0.93;0.93;;;;;;;12.45;nan;60122.84;5012504;28;20186;-72
2023/10/25 02:26:19;;;;;;;1.35;1.30;;;;;;;12.24;nan;60179.97;5012720;28;20203;-70
2023/10/25 02:28:45;;;;;;;2.63;1.67;;;;;;;12.45;nan;60133.66;5012627;28;20271;-71
2023/10/25 02:31:11;;;;;;;2.40;1.80;;;;;;;12.56;nan;60201.69;5012760;28;20628;-70
2023/10/25 02:33:36;;;;;;;1.10;1.10;;;;;;;12.39;nan;60224.84;5012954;28;20184;-71
2023/10/25 02:36:02;;;;;;;1.63;1.52;;;;;;;12.41;nan;60226.50;5012531;28;20606;-71
2023/10/25 02:38:27;;;;;;;0.90;0.90;;;;;;;12.51;nan;60278.63;5012659;28;20551;-71
2023/10/25 02:40:52;;;;;;;2.03;1.70;;;;;;;12.49;nan;60329.63;5012621;28;20326;-72
2023/10/25 02:43:18;;;;;;;1.58;1.48;;;;;;;12.56;nan;60288.78;5012384;28;20519;-70
2023/10/25 02:45:43;;;;;;;1.50;1.40;;;;;;;12.46;nan;60282.75;5012222;28;20235;-72
2023/10/25 02:48:13;;;;;;;2.17;1.75;;;;;;;12.52;nan;60381.66;5010921;28;20180;-70
2023/10/25 02:50:39;;;;;;;1.77;1.58;;;;;;;12.44;nan;60472.63;5012321;28;20259;-71
2023/10/25 02:53:04;;;;;;;1.65;1.27;;;;;;;12.47;nan;60332.53;5012460;28;20330;-70
2023/10/25 02:55:29;;;;;;;1.33;1.23;;;;;;;12.59;nan;60415.06;5012421;28;20235;-73
2023/10/25 02:57:55;;;;;;;1.38;1.27;;;;;;;12.60;nan;60145.22;5014331;28;20183;-71
2023/10/25 03:00:20;;;;;;;2.03;1.73;;;;;;;12.39;nan;59979.00;5015426;28;20186;-70
2023/10/25 03:02:46;;;;;;;2.28;2.05;;;;;;;12.30;nan;59876.84;5016694;28;20646;-70
2023/10/25 03:05:11;;;;;;;1.15;1.13;;;;;;;12.18;nan;59715.09;5016529;28;20199;-72
2023/10/25 03:07:37;;;;;;;1.95;1.33;;;;;;;12.23;nan;59615.13;5016058;28;20251;-71
2023/10/25 03:10:02;;;;;;;1.42;1.20;;;;;;;12.36;nan;59273.63;5016159;28;20172;-69
2023/10/25 03:12:29;;;;;;;1.70;1.48;;;;;;;12.27;nan;59128.63;5014673;28;20290;-70
2023/10/25 03:14:55;;;;;;;1.50;1.40;;;;;;;12.30;nan;59144.19;5016076;28;20597;-73
2023/10/25 03:17:21;;;;;;;1.50;1.42;;;;;;;12.21;nan;59129.72;5016183;28;20164;-70
2023/10/25 03:19:47;;;;;;;1.30;1.27;;;;;;;12.27;nan;59167.03;5015906;28;20299;-73
2023/10/25 03:22:12;;;;;;;1.50;1.40;;;;;;;12.19;nan;59091.72;5008501;28;20200;-72
2023/10/25 03:24:38;;;;;;;2.28;1.88;;;;;;;12.20;nan;58698.72;4995776;28;20419;-71
2023/10/25 03:27:07;;;;;;;1.42;1.33;;;;;;;12.16;nan;58517.28;4995403;28;20727;-71
2023/10/25 03:29:36;;;;;;;2.55;1.73;;;;;;;12.08;nan;58715.78;4994828;28;20570;-72
2023/10/25 03:32:01;;;;;;;2.85;2.25;;;;;;;12.19;nan;58740.59;4995730;28;20177;-72
2023/10/25 03:34:27;;;;;;;1.40;1.30;;;;;;;12.02;nan;58551.22;4993725;28;20698;-73
2023/10/25 03:36:52;;;;;;;1.73;1.60;;;;;;;12.06;nan;58322.78;4994267;28;20191;-72
2023/10/25 03:39:17;;;;;;;2.13;1.30;;;;;;;12.18;nan;58100.38;4994323;28;20231;-71
2023/10/25 03:41:43;;;;;;;1.58;1.48;;;;;;;12.18;nan;57911.06;4995155;28;20185;-72
2023/10/25 03:44:09;;;;;;;1.55;1.45;;;;;;;12.25;nan;58422.66;4995595;28;20260;-72
2023/10/25 03:46:34;;;;;;;1.85;1.75;;;;;;;12.23;nan;58312.50;4995044;28;20224;-72
2023/10/25 03:48:59;;;;;;;1.00;1.00;;;;;;;12.37;nan;59110.88;4994181;28;20609;-71
2023/10/25 03:51:25;;;;;;;1.38;1.27;;;;;;;12.12;nan;59267.72;4995285;28;20191;-73
2023/10/25 03:53:50;;;;;;;1.40;1.30;;;;;;;12.34;nan;59420.47;4995500;28;20216;-70
2023/10/25 03:56:16;;;;;;;1.52;1.42;;;;;;;12.23;nan;59425.72;4995487;28;20541;-72
2023/10/25 03:58:41;;;;;;;2.05;1.80;;;;;;;12.27;nan;59430.66;4995452;28;20179;-73
2023/10/25 04:01:07;;;;;;;1.45;1.35;;;;;;;12.29;nan;59363.75;4995336;28;20267;-72
2023/10/25 04:03:33;;;;;;;2.47;2.22;;;;;;;12.19;nan;59068.69;5010511;28;20176;-73
2023/10/25 04:05:59;;;;;;;1.58;1.48;;;;;;;12.09;nan;59026.47;4994238;28;20205;-73
2023/10/25 04:08:24;;;;;;;1.10;1.10;;;;;;;12.12;nan;58899.81;4995004;28;20242;-70
2023/10/25 04:10:53;;;;;;;2.13;1.65;;;;;;;12.24;nan;58969.22;4994169;28;20192;-69
2023/10/25 04:13:19;;;;;;;1.40;1.30;;;;;;;12.23;nan;59174.88;4994318;28;20574;-70
2023/10/25 04:16:00;;;;;;;1.45;1.35;;;;;;;12.46;nan;59450.47;4995045;28;20169;-72
2023/10/25 04:18:28;;;;;;;3.75;1.88;;;;;;;12.13;nan;59478.69;4994710;28;20283;-72
2023/10/25 04:20:55;;;;;;;1.13;1.10;;;;;;;12.32;nan;59492.50;4994133;28;20547;-72
2023/10/25 04:23:22;;;;;;;3.53;1.42;;;;;;;12.31;nan;59442.75;4994886;28;20172;-71
2023/10/25 04:25:47;;;;;;;2.05;1.40;;;;;;;12.30;nan;59382.22;4994353;28;20193;-71
2023/10/25 04:28:14;;;;;;;1.70;1.60;;;;;;;12.48;nan;59263.22;4993862;28;20574;-71
2023/10/25 04:30:39;;;;;;;1.48;1.38;;;;;;;12.27;nan;59264.28;4994505;28;20185;-71
2023/10/25 04:33:07;;;;;;;1.63;1.52;;;;;;;12.36;nan;59182.00;4994113;28;20698;-71
2023/10/25 04:35:32;;;;;;;2.53;1.70;;;;;;;12.61;nan;59233.94;4994108;28;20197;-72
2023/10/25 04:37:58;;;;;;;1.98;1.80;;;;;;;12.70;nan;59336.03;4993954;28;20219;-72
2023/10/25 04:40:23;;;;;;;1.55;1.35;;;;;;;12.66;nan;59234.31;4994053;28;20249;-72
2023/10/25 04:42:53;;;;;;;1.50;1.40;;;;;;;12.75;nan;59488.09;4994473;28;20181;-71
2023/10/25 04:45:22;;;;;;;1.65;1.33;;;;;;;12.73;nan;59723.56;4993808;28;20557;-71
2023/10/25 04:47:51;;;;;;;0.93;0.93;;;;;;;12.82;nan;59779.66;4993980;28;20183;-71
2023/10/25 04:50:19;;;;;;;1.42;1.33;;;;;;;12.72;nan;59933.09;4991906;28;20663;-73
2023/10/25 04:52:45;;;;;;;2.03;1.58;;;;;;;13.03;nan;60125.88;4993805;28;20212;-73
2023/10/25 04:55:11;;;;;;;1.67;1.42;;;;;;;12.87;nan;60302.28;4994128;28;20207;-70
2023/10/25 04:57:36;;;;;;;2.67;1.85;;;;;;;12.87;nan;60348.41;4994377;28;20165;-71
2023/10/25 05:00:03;;;;;;;2.65;1.55;;;;;;;13.07;nan;60263.63;4994310;28;20256;-73
2023/10/25 05:02:28;;;;;;;2.38;2.15;;;;;;;13.11;nan;60309.13;5007268;28;20191;-71
2023/10/25 05:04:54;;;;;;;1.83;1.45;;;;;;;13.05;nan;60412.66;5013586;28;20168;-70
2023/10/25 05:07:20;;;;;;;1.63;1.52;;;;;;;12.87;nan;60313.09;5013300;28;20218;-73
2023/10/25 05:09:45;;;;;;;1.40;1.30;;;;;;;12.75;nan;60245.91;5013469;28;20172;-70
2023/10/25 05:12:14;;;;;;;1.67;1.58;;;;;;;12.89;nan;59772.03;5009332;28;20627;-71
2023/10/25 05:14:39;;;;;;;2.47;1.92;;;;;;;13.06;nan;59957.44;4991259;28;20200;-71
2023/10/25 05:17:06;;;;;;;1.63;1.38;;;;;;;13.03;nan;59918.25;4999879;28;20252;-69
2023/10/25 05:19:32;;;;;;;3.67;2.38;;;;;;;12.67;nan;60024.38;5004037;28;20308;-70
2023/10/25 05:22:05;;;;;;;2.67;1.95;;;;;;;12.86;nan;59853.25;4992758;28;20693;-72
2023/10/25 05:24:31;;;;;;;1.63;1.33;;;;;;;13.01;nan;59867.31;4992167;28;20183;-71
2023/10/25 05:26:56;;;;;;;1.50;1.35;;;;;;;13.05;nan;59882.00;4993487;28;20204;-70
2023/10/25 05:29:22;;;;;;;2.55;1.92;;;;;;;13.02;nan;60008.84;4993261;28;20177;-72
2023/10/25 05:31:48;;;;;;;2.10;1.80;;;;;;;13.18;nan;59875.34;4993372;28;20227;-71
2023/10/25 05:34:13;;;;;;;3.42;2.72;;;;;;;13.24;nan;59856.94;4993130;28;20219;-70
2023/10/25 05:36:39;;;;;;;2.05;1.85;;;;;;;13.11;nan;59877.88;4993201;28;20169;-73
2023/10/25 05:39:05;;;;;;;2.58;1.88;;;;;;;13.12;nan;60027.66;4993339;28;20168;-71
2023/10/25 05:41:37;;;;;;;1.77;1.67;;;;;;;12.90;nan;60083.22;4993414;28;20172;-72
2023/10/25 05:44:14;;;;;;;3.83;2.70;;;;;;;13.14;nan;59997.09;4992943;28;20161;-70
2023/10/25 05:46:40;;;;;;;5.05;2.45;;;;;;;13.12;nan;60135.34;4993086;28;20199;-69
2023/10/25 05:49:06;;;;;;;2.10;1.92;;;;;;;13.06;nan;60149.72;4992564;28;20168;-70
2023/10/25 05:51:32;;;;;;;2.33;2.17;;;;;;;13.38;nan;60266.88;4993102;28;20626;-74
2023/10/25 05:53:59;;;;;;;3.03;2.15;;;;;;;13.33;nan;60396.66;4993077;28;20702;-73
2023/10/25 05:56:26;;;;;;;3.58;2.25;;;;;;;13.59;nan;60412.88;4992959;28;20607;-71
2023/10/25 05:58:55;;;;;;;2.20;2.00;;;;;;;13.58;nan;60435.41;4992958;28;20641;-74
2023/10/25 06:01:31;;;;;;;3.30;2.88;;;;;;;13.43;nan;60452.00;5007728;28;20172;-74
2023/10/25 06:03:59;;;;;;;1.83;1.70;;;;;;;13.26;nan;60474.63;4992923;28;20663;-71
2023/10/25 06:06:26;;;;;;;3.15;2.70;;;;;;;13.16;nan;60519.84;4992591;28;20200;-71
2023/10/25 06:08:51;;;;;;;2.65;2.03;;;;;;;13.14;nan;60552.94;4993723;28;20173;-70
2023/10/25 06:11:17;;;;;;;2.13;2.00;;;;;;;13.18;nan;60398.97;4994049;28;20259;-72
2023/10/25 06:13:43;;;;;;;2.15;1.95;;;;;;;13.04;nan;60419.22;4994564;28;20252;-71
2023/10/25 06:16:09;;;;;;;1.27;1.23;;;;;;;13.30;nan;60611.31;4994486;28;20698;-70
2023/10/25 06:18:34;;;;;;;1.35;1.25;;;;;;;13.24;nan;60725.69;4994537;28;20173;-71
2023/10/25 06:20:59;;;;;;;2.88;2.45;;;;;;;12.96;nan;60589.72;4994826;28;20652;-72
2023/10/25 06:23:25;;;;;;;1.70;1.60;;;;;;;13.18;nan;60511.25;4994377;28;20250;-73
2023/10/25 06:25:50;;;;;;;2.00;1.80;;;;;;;13.06;nan;60588.13;4994848;28;20228;-73
2023/10/25 06:28:16;;;;;;;4.75;1.52;;;;;;;13.39;nan;60518.81;4994574;28;20852;-72
2023/10/25 06:30:41;;;;;;;2.50;1.60;;;;;;;13.44;nan;60591.66;4994660;28;20180;-71
2023/10/25 06:33:07;;;;;;;2.20;1.70;;;;;;;13.42;nan;60611.94;4993887;28;20528;-75
2023/10/25 06:35:33;;;;;;;3.50;2.20;;;;;;;13.46;nan;60544.56;4991569;28;20185;-71
2023/10/25 06:37:59;;;;;;;1.60;1.50;;;;;;;13.40;nan;60568.66;4992619;28;20263;-73
2023/10/25 06:40:24;;;;;;;1.38;1.27;;;;;;;13.67;nan;60598.88;4991794;28;20215;-71
2023/10/25 06:42:52;;;;;;;1.08;1.08;;;;;;;13.48;nan;60752.06;4991010;28;20204;-71
2023/10/25 06:45:19;;;;;;;2.25;1.85;;;;;;;13.79;nan;60673.38;4992311;28;20230;-74
2023/10/25 06:47:44;;;;;;;1.42;1.33;;;;;;;13.84;nan;60763.69;4991799;28;20219;-73
2023/10/25 06:50:12;;;;;;;1.73;1.52;;;;;;;13.97;nan;60832.75;4990781;28;20255;-74
2023/10/25 06:52:38;;;;;;;3.13;1.90;;;;;;;13.92;nan;60793.22;4990063;28;20184;-71
2023/10/25 06:55:03;;;;;;;2.75;2.55;;;;;;;14.08;nan;60764.94;4991543;28;20191;-75
2023/10/25 06:57:29;;;;;;;3.80;2.35;;;;;;;13.94;nan;60605.47;4990934;28;20188;-70
2023/10/25 06:59:55;;;;;;;2.72;2.15;;;;;;;13.99;nan;60742.00;4989886;28;20567;-73
2023/10/25 07:02:35;;;;;;;2.90;1.92;;;;;;;14.25;nan;60750.63;4992047;28;20177;-71
2023/10/25 07:05:11;;;;;;;1.92;1.77;;;;;;;14.16;nan;60674.31;4992256;28;20172;-74
2023/10/25 07:07:38;;;;;;;1.35;1.25;;;;;;;14.25;nan;60819.44;5007121;28;20738;-71
2023/10/25 07:10:04;;;;;;;1.85;1.65;;;;;;;14.27;nan;60827.38;4990393;28;20181;-73
2023/10/25 07:12:33;;;;;;;3.65;1.98;;;;;;;14.52;nan;60893.47;4991202;28;20263;-73
2023/10/25 07:14:59;;;;;;;1.85;1.75;;;;;;;14.66;nan;60857.78;4989545;28;20215;-72
2023/10/25 07:17:24;;;;;;;2.50;2.15;;;;;;;14.64;nan;60847.28;4992103;28;20188;-70
2023/10/25 07:19:50;;;;;;;2.35;2.10;;;;;;;14.72;nan;60987.94;4991883;28;20746;-72
2023/10/25 07:22:15;;;;;;;2.40;2.00;;;;;;;14.92;nan;61079.91;4991235;28;20619;-71
2023/10/25 07:24:41;;;;;;;7.47;3.00;;;;;;;14.94;nan;61107.88;5005916;28;20193;-70
2023/10/25 07:27:06;;;;;;;2.13;1.65;;;;;;;14.95;nan;61073.00;4991685;28;20204;-70
2023/10/25 07:29:32;;;;;;;1.70;1.60;;;;;;;15.12;nan;60983.00;4992048;28;20652;-72
2023/10/25 07:31:57;;;;;;;2.78;2.47;;;;;;;15.06;nan;61023.09;4990841;28;20252;-73
2023/10/25 07:34:22;;;;;;;3.75;2.28;;;;;;;15.42;nan;61048.19;4990235;28;20628;-72
2023/10/25 07:36:48;;;;;;;1.77;1.60;;;;;;;15.24;nan;61166.31;4990559;28;20478;-73
2023/10/25 07:39:15;;;;;;;1.40;1.30;;;;;;;15.56;nan;61129.81;4988244;28;20185;-72
2023/10/25 07:41:41;;;;;;;1.50;1.30;;;;;;;15.39;nan;61064.84;4988994;28;20246;-74
2023/10/25 07:44:07;;;;;;;2.65;2.08;;;;;;;15.49;nan;61107.00;4991078;28;20177;-71
2023/10/25 07:46:32;;;;;;;1.63;1.52;;;;;;;15.72;nan;61109.78;4991597;28;20583;-74
2023/10/25 07:48:57;;;;;;;4.47;2.15;;;;;;;15.60;nan;61080.25;4995644;28;20180;-74
2023/10/25 07:51:23;;;;;;;8.95;2.85;;;;;;;15.22;nan;61136.31;4994042;28;20354;-76
2023/10/25 07:53:48;;;;;;;1.80;1.42;;;;;;;15.77;nan;61130.28;4993092;28;20642;-74
2023/10/25 07:56:14;;;;;;;2.72;1.70;;;;;;;15.70;nan;61256.34;4994727;28;20176;-73
2023/10/25 07:58:39;;;;;;;2.97;1.75;;;;;;;15.95;nan;61148.03;4993962;28;20216;-74
2023/10/25 08:01:05;;;;;;;2.17;1.70;;;;;;;15.89;nan;61257.19;4994213;28;20666;-73
2023/10/25 08:03:30;;;;;;;2.63;2.08;;;;;;;15.99;nan;61299.41;4994175;28;20173;-73
2023/10/25 08:05:56;;;;;;;1.90;1.80;;;;;;;16.20;nan;61307.09;4994093;28;20301;-75
2023/10/25 08:08:21;;;;;;;1.58;1.48;;;;;;;16.23;nan;61416.75;5009537;28;20331;-73
2023/10/25 08:10:47;;;;;;;2.78;1.83;;;;;;;16.34;nan;61304.88;4994637;28;20189;-71
2023/10/25 08:13:12;;;;;;;1.55;1.45;;;;;;;16.26;nan;61295.84;4994083;28;20663;-72
2023/10/25 08:15:38;;;;;;;3.42;2.35;;;;;;;16.29;nan;61157.44;4993478;28;20247;-72
2023/10/25 08:18:04;;;;;;;1.92;1.73;;;;;;;16.47;nan;61251.97;4995990;28;20189;-74
2023/10/25 08:20:34;;;;;;;1.60;1.50;;;;;;;16.28;nan;61156.88;4993730;28;20236;-75
2023/10/25 08:23:00;;;;;;;3.08;2.05;;;;;;;16.56;nan;61233.75;4995209;28;20177;-74
2023/10/25 08:25:26;;;;;;;3.08;1.73;;;;;;;16.52;nan;61311.75;4993706;28;20559;-72
2023/10/25 08:27:51;;;;;;;3.00;2.17;;;;;;;16.71;nan;61264.19;4994929;28;20246;-72
2023/10/25 08:30:17;;;;;;;1.45;1.35;;;;;;;16.58;nan;61383.63;5006240;28;20201;-71
2023/10/25 08:32:46;;;;;;;2.38;1.65;;;;;;;16.68;nan;61345.91;5000207;28;20188;-74
2023/10/25 08:35:11;;;;;;;2.17;1.55;;;;;;;16.88;nan;61266.78;4994320;28;20635;-71
2023/10/25 08:37:37;;;;;;;1.52;1.20;;;;;;;16.75;nan;61355.84;4994988;28;20279;-71
2023/10/25 08:40:03;;;;;;;2.10;1.85;;;;;;;16.83;nan;61237.91;4994758;28;20647;-74
2023/10/25 08:42:29;;;;;;;1.65;1.55;;;;;;;17.04;nan;61311.22;4995062;28;20195;-75
2023/10/25 08:44:54;;;;;;;2.10;1.50;;;;;;;17.08;nan;61312.56;4994757;28;20180;-72
2023/10/25 08:47:20;;;;;;;1.38;1.25;;;;;;;17.04;nan;61395.81;4994618;28;20201;-71
2023/10/25 08:49:45;;;;;;;2.80;2.25;;;;;;;16.98;nan;61417.41;4994587;28;20636;-73
2023/10/25 08:52:11;;;;;;;3.13;2.40;;;;;;;17.12;nan;61402.28;4994289;28;20675;-71
2023/10/25 08:54:37;;;;;;;2.25;1.45;;;;;;;17.16;nan;61303.53;4994538;28;20542;-73
2023/10/25 08:57:04;;;;;;;1.98;1.52;;;;;;;17.39;nan;61391.50;4994484;28;20172;-74
2023/10/25 08:59:30;;;;;;;1.55;1.45;;;;;;;17.43;nan;61323.16;4994481;28;20227;-73
2023/10/25 09:01:56;;;;;;;2.25;1.85;;;;;;;17.51;nan;61440.69;4994247;28;20644;-71
2023/10/25 09:04:21;;;;;;;5.85;1.48;;;;;;;17.88;nan;61405.03;4994154;28;20628;-74
2023/10/25 09:06:47;;;;;;;2.33;1.95;;;;;;;17.95;nan;61412.38;4994066;28;20193;-71
2023/10/25 09:09:12;;;;;;;1.60;1.50;;;;;;;17.98;nan;61420.97;4994442;28;20226;-74
2023/10/25 09:11:39;;;;;;;1.80;1.52;;;;;;;17.74;nan;61383.47;4994188;28;20633;-72
2023/10/25 09:14:05;;;;;;;2.28;2.10;;;;;;;17.72;nan;61347.63;4994186;28;20203;-72
2023/10/25 09:16:30;;;;;;;2.70;2.00;;;;;;;18.04;nan;61435.47;4994258;28;20628;-74
2023/10/25 09:18:58;;;;;;;4.53;1.52;;;;;;;17.99;nan;61404.53;4995020;28;20228;-73
2023/10/25 09:21:29;;;;;;;2.25;1.40;;;;;;;17.84;nan;61405.13;4993829;28;20173;-74
2023/10/25 09:23:56;;;;;;;4.45;2.13;;;;;;;17.72;nan;61474.22;4994461;28;20255;-74
2023/10/25 09:26:22;;;;;;;5.90;1.77;;;;;;;17.89;nan;61413.38;4993879;28;20192;-72
2023/10/25 09:28:52;;;;;;;1.38;1.25;;;;;;;17.90;nan;61497.75;5008882;28;20172;-73
2023/10/25 09:31:27;;;;;;;1.70;1.55;;;;;;;17.95;nan;61536.47;4993949;28;20168;-72
2023/10/25 09:33:53;;;;;;;1.50;1.40;;;;;;;18.24;nan;61427.09;4993677;28;20210;-72
2023/10/25 09:36:19;;;;;;;1.50;1.40;;;;;;;18.58;nan;61461.84;4993602;28;20173;-71
2023/10/25 09:38:45;;;;;;;2.85;1.80;;;;;;;18.78;nan;61505.19;4993810;28;20176;-74
2023/10/25 09:41:16;;;;;;;1.48;1.30;;;;;;;18.98;nan;61501.94;4993504;28;20200;-73
2023/10/25 09:43:47;;;;;;;1.42;1.23;;;;;;;18.86;nan;61426.81;4992119;28;20195;-65
2023/10/25 09:46:16;;;;;;;1.90;1.42;;;;;;;19.21;nan;61621.22;4991173;28;20185;-64
2023/10/25 09:49:03;;;;;;;2.42;1.55;;;;;;;19.23;nan;61698.63;4992728;28;20242;-64
2023/10/25 09:51:51;;;;;;;1.35;1.25;;;;;;;19.46;nan;61666.59;4993440;28;20179;-64
2023/10/25 09:54:25;;;;;;;3.08;1.48;;;;;;;19.46;nan;61586.84;4993611;28;20177;-65
2023/10/25 09:56:54;;;;;;;1.83;1.60;;;;;;;19.19;nan;61740.69;4993641;28;20172;-64
2023/10/25 09:59:20;;;;;;;3.70;2.80;;;;;;;19.44;nan;61628.59;4993446;28;20176;-64
2023/10/25 10:01:46;;;;;;;6.18;3.22;;;;;;;19.52;nan;61645.44;4993321;28;20556;-64
2023/10/25 10:04:28;;;;;;;2.80;1.65;;;;;;;19.63;nan;61704.00;4993431;28;20231;-64
2023/10/25 10:07:21;;;;;;;1.77;1.40;;;;;;;19.82;nan;61661.31;4992937;28;20201;-64
2023/10/25 10:09:59;;;;;;;3.03;2.20;;;;;;;20.07;nan;61753.94;4993197;28;20180;-64
2023/10/25 10:12:25;;;;;;;4.47;3.25;;;;;;;20.21;nan;61717.38;4993182;28;20255;-64
2023/10/25 10:14:52;;;;;;;4.50;1.63;;;;;;;19.70;nan;61587.50;4993265;28;20675;-65
2023/10/25 10:17:18;;;;;;;1.75;1.60;;;;;;;19.84;nan;61631.91;4993007;28;20274;-64
2023/10/25 10:19:49;;;;;;;2.45;2.20;;;;;;;20.04;nan;61679.94;4992706;28;20732;-64
2023/10/25 10:22:18;;;;;;;4.05;2.17;;;;;;;20.23;nan;61681.31;4993045;28;20200;-64
2023/10/25 10:24:44;;;;;;;2.38;1.77;;;;;;;20.41;nan;61752.50;4992122;28;20541;-64
2023/10/25 10:27:11;;;;;;;1.80;1.38;;;;;;;20.51;nan;61795.59;4992219;28;20229;-64
2023/10/25 10:29:38;;;;;;;4.32;2.33;;;;;;;20.67;nan;61902.03;4992745;28;20620;-64
2023/10/25 10:32:05;;;;;;;4.45;2.75;;;;;;;20.62;nan;61847.00;4992974;28;20636;-64
2023/10/25 10:34:57;;;;;;;6.65;1.92;;;;;;;20.94;nan;61914.00;5011775;28;20520;-64
2023/10/25 10:37:24;;;;;;;19.65;2.88;;;;;;;20.89;nan;61931.69;5007285;28;20214;-64
2023/10/25 10:39:56;;;;;;;3.67;2.10;;;;;;;21.15;nan;61849.56;5011886;28;20152;-64
2023/10/25 10:42:29;;;;;;;1.75;1.65;;;;;;;21.23;nan;61858.06;5007583;28;20207;-64
2023/10/25 10:44:58;;;;;;;2.50;1.70;;;;;;;21.12;nan;61791.56;4986990;28;20184;-65
2023/10/25 10:47:42;;;;;;;1.35;1.25;;;;;;;21.01;nan;61786.88;4991952;28;20220;-64
2023/10/25 10:50:18;;;;;;;5.22;1.90;;;;;;;21.03;nan;61817.16;4991593;28;20588;-65
2023/10/25 10:52:44;;;;;;;4.78;1.88;;;;;;;20.98;nan;61827.06;4991923;28;20163;-65
2023/10/25 10:55:13;;;;;;;3.92;1.80;;;;;;;21.08;nan;61792.22;4992026;28;20263;-64
2023/10/25 10:57:39;;;;;;;2.10;1.90;;;;;;;21.21;nan;61831.84;4992048;28;20161;-67
2023/10/25 11:00:08;;;;;;;1.75;1.52;;;;;;;21.37;nan;61920.78;4992119;28;20522;-64
2023/10/25 11:02:37;;;;;;;2.70;2.10;;;;;;;21.33;nan;61939.63;4991202;28;20195;-64
2023/10/25 11:05:06;;;;;;;2.10;1.45;;;;;;;21.34;nan;62025.97;4991124;28;20208;-65
2023/10/25 11:07:32;;;;;;;3.17;2.47;;;;;;;21.11;nan;61925.56;4991627;28;20295;-64
2023/10/25 11:09:59;;;;;;;4.03;1.95;;;;;;;21.21;nan;61772.66;4992732;28;20188;-64
2023/10/25 11:12:24;;;;;;;1.95;1.55;;;;;;;21.08;nan;61802.63;4991707;28;20523;-65
2023/10/25 11:14:50;;;;;;;2.20;2.00;;;;;;;21.30;nan;61808.84;4991990;28;20185;-64
2023/10/25 11:17:16;;;;;;;6.97;2.60;;;;;;;21.15;nan;61833.97;4991918;28;20254;-64
2023/10/25 11:19:46;;;;;;;2.83;2.20;;;;;;;20.79;nan;61717.75;4994109;28;20220;-63
2023/10/25 11:22:12;;;;;;;3.72;1.75;;;;;;;21.03;nan;61825.53;4995679;28;20216;-64
2023/10/25 11:24:38;;;;;;;2.90;2.13;;;;;;;21.00;nan;61931.22;4994566;28;20211;-64
2023/10/25 11:27:04;;;;;;;3.03;2.25;;;;;;;20.98;nan;61757.50;4995785;28;20615;-64
2023/10/25 11:29:39;;;;;;;3.60;2.42;;;;;;;21.10;nan;61864.06;4995963;28;20554;-64
2023/10/25 11:32:14;;;;;;;1.83;1.63;;;;;;;21.13;nan;61867.53;5010857;28;20267;-64
2023/10/25 11:34:42;;;;;;;1.67;1.55;;;;;;;21.13;nan;61799.97;4995647;28;20172;-64
2023/10/25 11:37:08;;;;;;;1.50;1.23;;;;;;;21.09;nan;61832.31;4995653;28;20168;-64
2023/10/25 11:39:56;;;;;;;4.03;2.38;;;;;;;21.10;nan;61802.28;4995270;28;20183;-64
2023/10/25 11:42:24;;;;;;;1.45;1.35;;;;;;;21.04;nan;61917.03;4995506;28;20699;-64
2023/10/25 11:44:50;;;;;;;3.13;1.67;;;;;;;21.10;nan;61822.50;4995339;28;20188;-64
2023/10/25 11:47:22;;;;;;;1.63;1.50;;;;;;;21.02;nan;61790.03;4995120;28;20291;-64
2023/10/25 11:49:52;;;;;;;2.88;1.88;;;;;;;20.85;nan;61711.00;5010173;28;20263;-63
2023/10/25 11:52:28;;;;;;;5.05;1.65;;;;;;;21.11;nan;61997.72;4995329;28;20180;-63